createdAt,value
2019-03-23T00:00:23.188Z,7.58
2019-03-23T00:01:23.146Z,7.60
2019-03-23T00:02:23.132Z,7.46
2019-03-23T00:03:23.114Z,7.28
2019-03-23T00:04:25.313Z,7.21
2019-03-23T00:05:23.088Z,7.16
2019-03-23T00:06:30.751Z,6.94
2019-03-23T00:07:23.061Z,7.06
2019-03-23T00:08:23.047Z,6.97
2019-03-23T00:09:23.033Z,6.87
2019-03-23T00:10:23.016Z,6.95
2019-03-23T00:11:23.001Z,6.92
2019-03-23T00:12:22.993Z,6.97
2019-03-23T00:13:22.977Z,6.98
2019-03-23T00:14:22.964Z,7.03
2019-03-23T00:15:22.945Z,7.05
2019-03-23T00:16:22.932Z,7.07
2019-03-23T00:17:22.918Z,7.16
2019-03-23T00:18:22.900Z,7.20
2019-03-23T00:19:22.889Z,7.16
2019-03-23T00:20:22.871Z,7.24
2019-03-23T00:21:22.860Z,7.31
2019-03-23T00:22:22.846Z,7.17
2019-03-23T00:23:22.836Z,7.34
2019-03-23T00:24:22.812Z,7.37
2019-03-23T00:25:22.800Z,7.24
2019-03-23T00:26:22.785Z,7.24
2019-03-23T00:27:22.826Z,7.27
2019-03-23T00:28:22.756Z,7.42
2019-03-23T00:29:22.796Z,7.35
2019-03-23T00:30:22.730Z,7.48
2019-03-23T00:31:22.716Z,7.52
2019-03-23T00:32:22.701Z,7.55
2019-03-23T00:33:22.685Z,7.49
2019-03-23T00:34:22.671Z,7.55
2019-03-23T00:35:22.659Z,7.49
2019-03-23T00:36:22.642Z,7.46
2019-03-23T00:37:22.633Z,7.45
2019-03-23T00:38:22.615Z,7.46
2019-03-23T00:39:22.595Z,7.57
2019-03-23T00:40:22.580Z,7.55
2019-03-23T00:41:22.570Z,7.57
2019-03-23T00:42:22.558Z,7.68
2019-03-23T00:43:22.542Z,7.63
2019-03-23T00:44:22.531Z,7.68
2019-03-23T00:45:22.514Z,7.69
2019-03-23T00:46:22.492Z,7.72
2019-03-23T00:47:22.483Z,7.71
2019-03-23T00:48:22.469Z,7.68
2019-03-23T00:49:22.450Z,7.58
2019-03-23T00:50:22.436Z,7.67
2019-03-23T00:51:22.425Z,7.67
2019-03-23T00:52:22.410Z,7.68
2019-03-23T00:53:22.390Z,7.61
2019-03-23T00:54:22.378Z,7.64
2019-03-23T00:55:22.368Z,7.50
2019-03-23T00:56:22.353Z,7.53
2019-03-23T00:57:22.339Z,7.55
2019-03-23T00:58:22.327Z,7.52
2019-03-23T00:59:22.310Z,7.48
2019-03-23T01:00:22.290Z,7.46
2019-03-23T01:01:22.279Z,7.42
2019-03-23T01:02:22.262Z,7.25
2019-03-23T01:03:22.253Z,7.21
2019-03-23T01:04:22.234Z,7.15
2019-03-23T01:05:22.220Z,7.20
2019-03-23T01:06:22.208Z,7.21
2019-03-23T01:07:22.194Z,7.23
2019-03-23T01:08:22.181Z,7.31
2019-03-23T01:09:22.168Z,7.16
2019-03-23T01:10:22.145Z,7.16
2019-03-23T01:11:22.135Z,7.27
2019-03-23T01:12:22.117Z,7.20
2019-03-23T01:13:22.105Z,7.24
2019-03-23T01:14:22.091Z,7.17
2019-03-23T01:15:22.077Z,7.27
2019-03-23T01:16:22.069Z,7.32
2019-03-23T01:17:22.047Z,7.21
2019-03-23T01:18:22.031Z,7.15
2019-03-23T01:19:22.017Z,7.17
2019-03-23T01:20:22.006Z,7.21
2019-03-23T01:21:21.988Z,7.12
2019-03-23T01:22:21.974Z,7.24
2019-03-23T01:23:21.958Z,7.23
2019-03-23T01:24:21.945Z,7.24
2019-03-23T01:25:21.931Z,7.20
2019-03-23T01:26:21.916Z,7.24
2019-03-23T01:27:21.901Z,7.31
2019-03-23T01:28:21.880Z,7.23
2019-03-23T01:29:21.868Z,7.27
2019-03-23T01:30:21.857Z,7.30
2019-03-23T01:31:21.844Z,7.25
2019-03-23T01:32:21.826Z,7.21
2019-03-23T01:33:21.817Z,7.34
2019-03-23T01:34:21.798Z,7.20
2019-03-23T01:35:21.784Z,7.09
2019-03-23T01:36:21.771Z,7.16
2019-03-23T01:37:21.759Z,7.21
2019-03-23T01:38:21.739Z,7.09
2019-03-23T01:39:21.729Z,7.09
2019-03-23T01:40:21.715Z,7.12
2019-03-23T01:41:21.697Z,7.06
2019-03-23T01:42:21.683Z,7.23
2019-03-23T01:43:21.666Z,7.12
2019-03-23T01:44:21.652Z,7.17
2019-03-23T01:45:21.640Z,7.06
2019-03-23T01:46:21.620Z,7.21
2019-03-23T01:47:21.609Z,7.17
2019-03-23T01:48:21.598Z,7.17
2019-03-23T01:49:21.581Z,7.17
2019-03-23T01:50:21.567Z,7.16
2019-03-23T01:51:21.544Z,7.17
2019-03-23T01:52:21.533Z,7.24
2019-03-23T01:53:21.523Z,7.21
2019-03-23T01:54:21.521Z,7.20
2019-03-23T01:55:21.489Z,7.24
2019-03-23T01:56:21.476Z,7.23
2019-03-23T01:57:21.462Z,7.10
2019-03-23T01:58:21.442Z,7.20
2019-03-23T01:59:21.430Z,7.17
2019-03-23T02:00:21.420Z,7.16
2019-03-23T02:01:21.400Z,7.21
2019-03-23T02:02:21.389Z,7.21
2019-03-23T02:03:21.375Z,7.21
2019-03-23T02:04:21.362Z,7.20
2019-03-23T02:05:21.346Z,7.16
2019-03-23T02:06:21.328Z,7.05
2019-03-23T02:07:21.314Z,7.10
2019-03-23T02:08:21.299Z,7.06
2019-03-23T02:09:21.287Z,6.95
2019-03-23T02:10:21.270Z,7.07
2019-03-23T02:11:21.253Z,7.06
2019-03-23T02:12:21.237Z,7.09
2019-03-23T02:13:21.228Z,7.09
2019-03-23T02:14:21.210Z,7.06
2019-03-23T02:15:21.199Z,7.07
2019-03-23T02:16:21.181Z,7.03
2019-03-23T02:17:21.167Z,6.99
2019-03-23T02:18:21.150Z,6.94
2019-03-23T02:19:21.141Z,6.95
2019-03-23T02:20:21.127Z,6.84
2019-03-23T02:21:21.109Z,6.87
2019-03-23T02:22:21.096Z,6.85
2019-03-23T02:23:21.077Z,6.84
2019-03-23T02:24:21.058Z,6.84
2019-03-23T02:25:21.049Z,6.84
2019-03-23T02:26:21.032Z,6.80
2019-03-23T02:27:21.018Z,6.71
2019-03-23T02:28:21.010Z,6.61
2019-03-23T02:29:20.988Z,6.51
2019-03-23T02:30:20.989Z,6.46
2019-03-23T02:31:20.984Z,6.43
2019-03-23T02:32:20.949Z,6.41
2019-03-23T02:33:20.955Z,6.31
2019-03-23T02:34:20.959Z,6.21
2019-03-23T02:35:20.900Z,6.22
2019-03-23T02:36:20.898Z,6.21
2019-03-23T02:37:27.718Z,6.19
2019-03-23T02:38:20.853Z,6.18
2019-03-23T02:39:20.847Z,6.18
2019-03-23T02:40:20.826Z,6.19
2019-03-23T02:41:20.811Z,6.22
2019-03-23T02:42:20.796Z,6.31
2019-03-23T02:43:20.786Z,6.40
2019-03-23T02:44:20.805Z,6.40
2019-03-23T02:45:20.749Z,6.40
2019-03-23T02:46:20.740Z,6.40
2019-03-23T02:47:20.723Z,6.46
2019-03-23T02:48:20.709Z,6.51
2019-03-23T02:49:20.699Z,6.48
2019-03-23T02:50:20.676Z,6.46
2019-03-23T02:51:20.661Z,6.46
2019-03-23T02:52:20.645Z,6.46
2019-03-23T02:53:20.629Z,6.43
2019-03-23T02:54:20.614Z,6.44
2019-03-23T02:55:20.601Z,6.41
2019-03-23T02:56:20.587Z,6.40
2019-03-23T02:57:20.570Z,6.43
2019-03-23T02:58:20.556Z,6.43
2019-03-23T02:59:20.535Z,6.38
2019-03-23T03:00:20.522Z,6.40
2019-03-23T03:01:20.508Z,6.41
2019-03-23T03:02:20.494Z,6.40
2019-03-23T03:03:20.483Z,6.33
2019-03-23T03:04:20.467Z,6.31
2019-03-23T03:05:20.448Z,6.27
2019-03-23T03:06:20.436Z,6.34
2019-03-23T03:07:20.426Z,6.31
2019-03-23T03:08:20.407Z,6.36
2019-03-23T03:09:20.391Z,6.34
2019-03-23T03:10:20.374Z,6.38
2019-03-23T03:11:20.361Z,6.34
2019-03-23T03:12:20.350Z,6.30
2019-03-23T03:13:20.339Z,6.28
2019-03-23T03:14:20.315Z,6.28
2019-03-23T03:15:20.299Z,6.33
2019-03-23T03:16:20.285Z,6.30
2019-03-23T03:17:20.264Z,6.27
2019-03-23T03:18:20.250Z,6.18
2019-03-23T03:19:20.239Z,6.15
2019-03-23T03:20:20.219Z,6.11
2019-03-23T03:21:20.206Z,6.17
2019-03-23T03:22:20.189Z,6.17
2019-03-23T03:23:20.181Z,6.17
2019-03-23T03:24:20.159Z,6.18
2019-03-23T03:25:20.143Z,6.09
2019-03-23T03:26:20.135Z,6.08
2019-03-23T03:27:20.167Z,6.08
2019-03-23T03:28:20.100Z,6.08
2019-03-23T03:29:20.087Z,6.03
2019-03-23T03:30:20.070Z,6.01
2019-03-23T03:31:20.051Z,6.12
2019-03-23T03:32:20.041Z,6.15
2019-03-23T03:33:20.021Z,6.14
2019-03-23T03:34:20.004Z,6.21
2019-03-23T03:35:20.005Z,6.17
2019-03-23T03:36:19.976Z,6.09
2019-03-23T03:37:19.967Z,6.19
2019-03-23T03:38:19.950Z,6.09
2019-03-23T03:39:19.933Z,6.00
2019-03-23T03:40:19.921Z,5.99
2019-03-23T03:41:19.898Z,5.94
2019-03-23T03:42:19.890Z,5.94
2019-03-23T03:43:19.868Z,5.90
2019-03-23T03:44:19.868Z,5.82
2019-03-23T03:45:19.840Z,5.93
2019-03-23T03:46:19.823Z,5.79
2019-03-23T03:47:19.806Z,5.90
2019-03-23T03:48:19.791Z,5.91
2019-03-23T03:49:19.781Z,5.96
2019-03-23T03:50:19.759Z,5.97
2019-03-23T03:51:19.745Z,5.96
2019-03-23T03:52:19.730Z,5.99
2019-03-23T03:53:19.723Z,5.96
2019-03-23T03:54:19.700Z,5.97
2019-03-23T03:55:19.686Z,5.99
2019-03-23T03:56:19.671Z,5.94
2019-03-23T03:57:19.653Z,5.94
2019-03-23T03:58:19.641Z,5.94
2019-03-23T03:59:19.622Z,5.94
2019-03-23T04:00:19.610Z,5.94
2019-03-23T04:01:19.594Z,6.01
2019-03-23T04:02:19.577Z,5.97
2019-03-23T04:03:19.561Z,5.97
2019-03-23T04:04:19.545Z,5.91
2019-03-23T04:05:19.525Z,5.91
2019-03-23T04:06:19.513Z,5.90
2019-03-23T04:07:19.502Z,5.83
2019-03-23T04:08:19.499Z,5.81
2019-03-23T04:09:19.466Z,5.81
2019-03-23T04:10:19.453Z,5.79
2019-03-23T04:11:19.437Z,5.79
2019-03-23T04:12:19.424Z,5.76
2019-03-23T04:13:19.409Z,5.79
2019-03-23T04:14:19.397Z,5.75
2019-03-23T04:15:19.377Z,5.78
2019-03-23T04:16:19.360Z,5.72
2019-03-23T04:17:19.355Z,5.65
2019-03-23T04:18:19.333Z,5.68
2019-03-23T04:19:19.318Z,5.74
2019-03-23T04:20:19.304Z,5.74
2019-03-23T04:21:19.283Z,5.78
2019-03-23T04:22:19.276Z,5.78
2019-03-23T04:23:19.265Z,5.78
2019-03-23T04:24:19.276Z,5.85
2019-03-23T04:25:19.222Z,5.79
2019-03-23T04:26:19.209Z,5.78
2019-03-23T04:27:19.196Z,5.75
2019-03-23T04:28:19.174Z,5.78
2019-03-23T04:29:19.169Z,5.74
2019-03-23T04:30:19.138Z,5.82
2019-03-23T04:31:19.124Z,5.83
2019-03-23T04:32:19.110Z,5.78
2019-03-23T04:33:19.101Z,5.82
2019-03-23T04:34:19.081Z,5.94
2019-03-23T04:35:19.061Z,5.91
2019-03-23T04:36:19.048Z,5.96
2019-03-23T04:37:19.030Z,5.96
2019-03-23T04:38:22.954Z,5.94
2019-03-23T04:39:18.999Z,5.90
2019-03-23T04:40:18.989Z,5.97
2019-03-23T04:41:18.972Z,5.94
2019-03-23T04:42:18.961Z,5.94
2019-03-23T04:43:18.942Z,6.04
2019-03-23T04:44:18.925Z,5.99
2019-03-23T04:45:18.913Z,5.90
2019-03-23T04:46:18.894Z,5.93
2019-03-23T04:47:18.882Z,5.96
2019-03-23T04:48:18.865Z,5.94
2019-03-23T04:49:18.864Z,5.96
2019-03-23T04:50:18.833Z,5.97
2019-03-23T04:51:18.814Z,5.93
2019-03-23T04:52:18.799Z,5.90
2019-03-23T04:53:18.790Z,5.97
2019-03-23T04:54:18.776Z,5.94
2019-03-23T04:55:18.761Z,6.00
2019-03-23T04:56:18.745Z,5.93
2019-03-23T04:57:18.728Z,5.91
2019-03-23T04:58:18.712Z,5.91
2019-03-23T04:59:18.696Z,5.93
2019-03-23T05:00:18.686Z,5.94
2019-03-23T05:01:18.661Z,5.91
2019-03-23T05:02:18.649Z,5.96
2019-03-23T05:03:18.634Z,5.96
2019-03-23T05:04:18.620Z,5.86
2019-03-23T05:05:18.600Z,5.97
2019-03-23T05:06:18.586Z,5.99
2019-03-23T05:07:18.572Z,5.96
2019-03-23T05:08:18.553Z,6.00
2019-03-23T05:09:18.544Z,5.99
2019-03-23T05:10:18.528Z,6.03
2019-03-23T05:11:18.510Z,5.96
2019-03-23T05:12:18.491Z,5.97
2019-03-23T05:13:18.478Z,5.96
2019-03-23T05:14:18.460Z,5.96
2019-03-23T05:15:18.452Z,5.96
2019-03-23T05:16:18.429Z,5.90
2019-03-23T05:17:18.424Z,5.83
2019-03-23T05:18:18.400Z,5.81
2019-03-23T05:19:18.382Z,5.82
2019-03-23T05:20:18.370Z,5.82
2019-03-23T05:21:18.354Z,5.79
2019-03-23T05:22:18.336Z,5.82
2019-03-23T05:23:18.327Z,5.83
2019-03-23T05:24:18.305Z,5.83
2019-03-23T05:25:18.295Z,5.76
2019-03-23T05:26:18.277Z,5.82
2019-03-23T05:27:18.264Z,5.82
2019-03-23T05:28:18.250Z,5.96
2019-03-23T05:29:18.236Z,5.90
2019-03-23T05:30:18.214Z,5.93
2019-03-23T05:31:18.200Z,5.90
2019-03-23T05:32:18.185Z,5.89
2019-03-23T05:33:18.166Z,5.90
2019-03-23T05:34:18.152Z,5.94
2019-03-23T05:35:18.139Z,6.01
2019-03-23T05:36:18.123Z,5.96
2019-03-23T05:37:18.107Z,5.89
2019-03-23T05:38:18.095Z,5.99
2019-03-23T05:39:18.074Z,5.94
2019-03-23T05:40:18.056Z,5.96
2019-03-23T05:41:18.045Z,5.90
2019-03-23T05:42:18.031Z,5.97
2019-03-23T05:43:18.013Z,5.99
2019-03-23T05:44:17.996Z,5.99
2019-03-23T05:45:17.982Z,5.94
2019-03-23T05:46:17.965Z,5.99
2019-03-23T05:47:17.951Z,5.96
2019-03-23T05:48:17.937Z,5.93
2019-03-23T05:49:17.922Z,5.96
2019-03-23T05:50:17.909Z,5.99
2019-03-23T05:51:17.889Z,5.96
2019-03-23T05:52:17.872Z,5.99
2019-03-23T05:53:17.860Z,5.90
2019-03-23T05:54:17.843Z,6.03
2019-03-23T05:55:17.830Z,6.01
2019-03-23T05:56:17.811Z,5.99
2019-03-23T05:57:19.789Z,6.15
2019-03-23T05:58:17.784Z,6.08
2019-03-23T05:59:17.766Z,6.14
2019-03-23T06:00:17.750Z,6.17
2019-03-23T06:01:17.730Z,6.14
2019-03-23T06:02:17.718Z,6.25
2019-03-23T06:03:17.707Z,6.18
2019-03-23T06:04:17.693Z,6.22
2019-03-23T06:05:17.670Z,6.22
2019-03-23T06:06:17.660Z,6.12
2019-03-23T06:07:17.639Z,6.17
2019-03-23T06:08:17.625Z,6.11
2019-03-23T06:09:17.615Z,6.08
2019-03-23T06:10:17.602Z,6.14
2019-03-23T06:11:17.578Z,5.96
2019-03-23T06:12:17.765Z,5.99
2019-03-23T06:13:17.551Z,5.93
2019-03-23T06:14:17.533Z,5.90
2019-03-23T06:15:17.522Z,5.94
2019-03-23T06:16:17.994Z,5.91
2019-03-23T06:17:17.489Z,5.94
2019-03-23T06:18:17.475Z,5.86
2019-03-23T06:19:17.454Z,5.90
2019-03-23T06:20:17.439Z,5.94
2019-03-23T06:21:17.427Z,5.96
2019-03-23T06:22:17.408Z,6.01
2019-03-23T06:23:17.397Z,6.08
2019-03-23T06:24:17.380Z,6.04
2019-03-23T06:25:17.372Z,6.06
2019-03-23T06:26:17.350Z,6.17
2019-03-23T06:27:17.335Z,6.08
2019-03-23T06:28:17.321Z,6.04
2019-03-23T06:29:17.298Z,6.04
2019-03-23T06:30:17.283Z,6.17
2019-03-23T06:31:17.273Z,6.11
2019-03-23T06:32:17.257Z,6.14
2019-03-23T06:33:17.240Z,6.18
2019-03-23T06:34:17.227Z,6.27
2019-03-23T06:35:17.216Z,6.22
2019-03-23T06:36:17.199Z,6.21
2019-03-23T06:37:17.178Z,6.25
2019-03-23T06:38:17.161Z,6.22
2019-03-23T06:39:17.151Z,6.34
2019-03-23T06:40:17.137Z,6.27
2019-03-23T06:41:17.121Z,6.34
2019-03-23T06:42:17.102Z,6.33
2019-03-23T06:43:17.094Z,6.37
2019-03-23T06:44:18.397Z,6.34
2019-03-23T06:45:17.056Z,6.27
2019-03-23T06:46:17.043Z,6.33
2019-03-23T06:47:17.028Z,6.33
2019-03-23T06:48:17.016Z,6.38
2019-03-23T06:49:16.998Z,6.41
2019-03-23T06:50:16.987Z,6.43
2019-03-23T06:51:16.966Z,6.43
2019-03-23T06:52:16.952Z,6.48
2019-03-23T06:53:16.936Z,6.64
2019-03-23T06:54:16.918Z,6.69
2019-03-23T06:55:16.905Z,6.74
2019-03-23T06:56:16.893Z,6.81
2019-03-23T06:57:16.882Z,6.92
2019-03-23T06:58:16.865Z,6.81
2019-03-23T06:59:16.846Z,6.99
2019-03-23T07:00:16.828Z,7.06
2019-03-23T07:01:16.813Z,7.23
2019-03-23T07:02:16.797Z,7.32
2019-03-23T07:03:16.784Z,7.34
2019-03-23T07:04:16.768Z,7.55
2019-03-23T07:05:16.759Z,7.55
2019-03-23T07:06:16.742Z,7.80
2019-03-23T07:07:16.724Z,7.83
2019-03-23T07:08:16.706Z,7.98
2019-03-23T07:09:16.726Z,8.07
2019-03-23T07:10:16.680Z,8.22
2019-03-23T07:11:16.663Z,8.30
2019-03-23T07:12:16.648Z,8.38
2019-03-23T07:13:16.648Z,8.48
2019-03-23T07:14:16.621Z,8.53
2019-03-23T07:15:20.389Z,8.68
2019-03-23T07:16:16.597Z,8.73
2019-03-23T07:17:16.576Z,8.80
2019-03-23T07:18:16.558Z,8.92
2019-03-23T07:19:16.543Z,8.99
2019-03-23T07:20:16.528Z,9.02
2019-03-23T07:21:16.515Z,9.20
2019-03-23T07:22:16.505Z,9.28
2019-03-23T07:23:16.486Z,9.35
2019-03-23T07:24:16.478Z,9.46
2019-03-23T07:25:16.455Z,9.53
2019-03-23T07:26:16.447Z,9.64
2019-03-23T07:27:16.434Z,9.86
2019-03-23T07:28:16.420Z,9.86
2019-03-23T07:29:16.404Z,10.01
2019-03-23T07:30:16.392Z,10.11
2019-03-23T07:31:16.389Z,10.25
2019-03-23T07:32:16.361Z,10.33
2019-03-23T07:33:16.347Z,10.36
2019-03-23T07:34:16.331Z,10.53
2019-03-23T07:35:16.313Z,10.67
2019-03-23T07:36:16.306Z,10.68
2019-03-23T07:37:16.291Z,10.73
2019-03-23T07:38:16.282Z,10.86
2019-03-23T07:39:26.443Z,10.99
2019-03-23T07:40:16.254Z,11.06
2019-03-23T07:41:16.236Z,11.24
2019-03-23T07:42:16.216Z,11.33
2019-03-23T07:43:16.217Z,11.37
2019-03-23T07:44:16.195Z,11.58
2019-03-23T07:45:16.191Z,11.64
2019-03-23T07:46:16.164Z,11.65
2019-03-23T07:47:16.156Z,11.79
2019-03-23T07:48:16.141Z,11.88
2019-03-23T07:49:16.129Z,11.99
2019-03-23T07:50:16.111Z,12.05
2019-03-23T07:51:16.107Z,12.19
2019-03-23T07:52:16.096Z,12.34
2019-03-23T07:53:16.078Z,12.27
2019-03-23T07:54:16.066Z,12.39
2019-03-23T07:55:16.050Z,12.53
2019-03-23T07:56:16.037Z,12.65
2019-03-23T07:57:16.031Z,12.82
2019-03-23T07:58:16.014Z,12.83
2019-03-23T07:59:16.001Z,12.83
2019-03-23T08:00:15.985Z,12.86
2019-03-23T08:01:15.971Z,12.89
2019-03-23T08:02:15.963Z,13.00
2019-03-23T08:03:15.945Z,13.07
2019-03-23T08:04:15.933Z,13.15
2019-03-23T08:05:15.923Z,13.17
2019-03-23T08:06:15.913Z,13.29
2019-03-23T08:07:15.899Z,13.29
2019-03-23T08:08:15.884Z,13.33
2019-03-23T08:09:20.358Z,13.45
2019-03-23T08:10:15.860Z,13.52
2019-03-23T08:11:15.852Z,13.66
2019-03-23T08:12:15.836Z,13.63
2019-03-23T08:13:15.890Z,13.70
2019-03-23T08:14:15.813Z,13.82
2019-03-23T08:15:15.796Z,13.91
2019-03-23T08:16:15.787Z,14.06
2019-03-23T08:17:15.775Z,14.04
2019-03-23T08:18:15.765Z,14.17
2019-03-23T08:19:15.753Z,14.22
2019-03-23T08:20:15.743Z,14.24
2019-03-23T08:21:15.730Z,14.35
2019-03-23T08:22:15.718Z,14.40
2019-03-23T08:23:15.707Z,14.51
2019-03-23T08:24:15.691Z,14.64
2019-03-23T08:25:15.681Z,14.62
2019-03-23T08:26:15.669Z,14.69
2019-03-23T08:27:15.657Z,14.78
2019-03-23T08:28:15.647Z,14.80
2019-03-23T08:29:15.637Z,14.92
2019-03-23T08:30:15.624Z,14.98
2019-03-23T08:31:15.618Z,15.06
2019-03-23T08:32:15.604Z,15.23
2019-03-23T08:33:15.587Z,15.20
2019-03-23T08:34:15.580Z,15.27
2019-03-23T08:35:15.565Z,15.43
2019-03-23T08:36:15.554Z,15.44
2019-03-23T08:37:15.548Z,15.54
2019-03-23T08:38:15.532Z,15.53
2019-03-23T08:39:15.521Z,15.67
2019-03-23T08:40:15.511Z,15.67
2019-03-23T08:41:15.503Z,15.76
2019-03-23T08:42:15.489Z,15.86
2019-03-23T08:43:15.481Z,15.89
2019-03-23T08:44:15.469Z,16.00
2019-03-23T08:45:15.465Z,16.01
2019-03-23T08:46:15.445Z,16.09
2019-03-23T08:47:15.436Z,16.01
2019-03-23T08:48:15.426Z,15.93
2019-03-23T08:49:15.414Z,15.90
2019-03-23T08:50:15.407Z,15.96
2019-03-23T08:51:15.394Z,16.01
2019-03-23T08:52:15.385Z,16.05
2019-03-23T08:53:15.373Z,16.12
2019-03-23T08:54:15.359Z,16.27
2019-03-23T08:55:15.353Z,16.25
2019-03-23T08:56:15.347Z,16.38
2019-03-23T08:57:15.334Z,16.39
2019-03-23T08:58:15.318Z,16.38
2019-03-23T08:59:15.310Z,16.28
2019-03-23T09:00:15.297Z,16.38
2019-03-23T09:01:15.288Z,16.45
2019-03-23T09:02:15.279Z,16.57
2019-03-23T09:03:15.267Z,16.60
2019-03-23T09:04:15.259Z,16.67
2019-03-23T09:05:15.249Z,16.76
2019-03-23T09:06:15.243Z,16.96
2019-03-23T09:07:15.226Z,16.97
2019-03-23T09:08:15.225Z,17.12
2019-03-23T09:09:15.207Z,17.16
2019-03-23T09:10:15.194Z,17.28
2019-03-23T09:11:20.453Z,17.41
2019-03-23T09:12:15.177Z,17.46
2019-03-23T09:13:15.170Z,17.68
2019-03-23T09:14:15.158Z,17.77
2019-03-23T09:15:15.157Z,17.68
2019-03-23T09:16:15.144Z,17.75
2019-03-23T09:17:15.128Z,17.84
2019-03-23T09:18:15.122Z,17.78
2019-03-23T09:19:15.108Z,17.58
2019-03-23T09:20:15.095Z,17.75
2019-03-23T09:21:15.087Z,17.78
2019-03-23T09:22:15.081Z,17.75
2019-03-23T09:23:15.070Z,17.82
2019-03-23T09:24:15.060Z,17.97
2019-03-23T09:25:15.054Z,18.02
2019-03-23T09:26:15.034Z,18.11
2019-03-23T09:27:15.040Z,18.26
2019-03-23T09:28:15.020Z,18.41
2019-03-23T09:29:15.013Z,18.54
2019-03-23T09:30:15.003Z,18.75
2019-03-23T09:31:14.995Z,18.66
2019-03-23T09:32:14.983Z,18.87
2019-03-23T09:33:14.983Z,18.90
2019-03-23T09:34:14.977Z,18.88
2019-03-23T09:35:14.960Z,19.00
2019-03-23T09:36:14.950Z,19.08
2019-03-23T09:37:14.946Z,19.28
2019-03-23T09:38:14.934Z,19.29
2019-03-23T09:39:14.924Z,19.48
2019-03-23T09:40:14.918Z,19.54
2019-03-23T09:41:14.910Z,19.65
2019-03-23T09:42:14.901Z,19.73
2019-03-23T09:43:14.891Z,19.80
2019-03-23T09:44:14.882Z,19.80
2019-03-23T09:45:14.878Z,19.69
2019-03-23T09:46:14.863Z,19.71
2019-03-23T09:47:14.857Z,19.73
2019-03-23T09:48:14.846Z,19.74
2019-03-23T09:49:14.833Z,19.76
2019-03-23T09:50:14.849Z,19.62
2019-03-23T09:51:14.818Z,19.74
2019-03-23T09:52:14.810Z,19.68
2019-03-23T09:53:14.801Z,19.76
2019-03-23T09:54:14.796Z,19.77
2019-03-23T09:55:14.787Z,19.76
2019-03-23T09:56:14.776Z,19.84
2019-03-23T09:57:14.769Z,19.80
2019-03-23T09:58:14.762Z,19.62
2019-03-23T09:59:14.755Z,19.46
2019-03-23T10:00:14.738Z,19.46
2019-03-23T10:01:14.734Z,19.37
2019-03-23T10:02:14.725Z,19.43
2019-03-23T10:03:14.722Z,19.48
2019-03-23T10:04:14.716Z,19.65
2019-03-23T10:05:14.705Z,19.80
2019-03-23T10:06:14.696Z,19.91
2019-03-23T10:07:14.683Z,19.99
2019-03-23T10:08:14.677Z,20.16
2019-03-23T10:09:14.674Z,20.14
2019-03-23T10:10:21.649Z,20.18
2019-03-23T10:11:14.657Z,20.26
2019-03-23T10:12:14.693Z,20.33
2019-03-23T10:13:14.637Z,20.41
2019-03-23T10:14:14.634Z,20.47
2019-03-23T10:15:14.628Z,20.58
2019-03-23T10:16:14.617Z,20.74
2019-03-23T10:17:14.610Z,20.89
2019-03-23T10:18:14.598Z,20.98
2019-03-23T10:19:14.591Z,21.10
2019-03-23T10:20:14.582Z,21.31
2019-03-23T10:21:14.580Z,21.42
2019-03-23T10:22:14.568Z,21.34
2019-03-23T10:23:14.557Z,21.32
2019-03-23T10:24:14.555Z,21.22
2019-03-23T10:25:14.595Z,21.34
2019-03-23T10:26:14.533Z,21.31
2019-03-23T10:27:14.529Z,21.13
2019-03-23T10:28:14.525Z,21.17
2019-03-23T10:29:14.517Z,21.09
2019-03-23T10:30:14.507Z,20.92
2019-03-23T10:31:14.502Z,20.84
2019-03-23T10:32:14.495Z,20.74
2019-03-23T10:33:14.486Z,20.64
2019-03-23T10:34:14.476Z,20.62
2019-03-23T10:35:14.471Z,20.59
2019-03-23T10:36:14.464Z,20.38
2019-03-23T10:37:14.457Z,20.33
2019-03-23T10:38:14.447Z,20.31
2019-03-23T10:39:14.439Z,20.35
2019-03-23T10:40:14.434Z,20.42
2019-03-23T10:41:14.425Z,20.67
2019-03-23T10:42:16.277Z,20.89
2019-03-23T10:43:14.415Z,20.99
2019-03-23T10:44:14.411Z,21.13
2019-03-23T10:45:14.401Z,21.29
2019-03-23T10:46:14.385Z,21.47
2019-03-23T10:47:14.380Z,21.72
2019-03-23T10:48:14.372Z,21.88
2019-03-23T10:49:14.368Z,22.02
2019-03-23T10:50:14.360Z,22.15
2019-03-23T10:51:14.350Z,22.12
2019-03-23T10:52:14.350Z,22.35
2019-03-23T10:53:22.833Z,22.36
2019-03-23T10:54:14.334Z,22.47
2019-03-23T10:55:14.323Z,22.67
2019-03-23T10:56:14.321Z,22.79
2019-03-23T10:57:14.319Z,22.85
2019-03-23T10:58:14.306Z,23.02
2019-03-23T10:59:14.299Z,23.12
2019-03-23T11:00:14.287Z,23.33
2019-03-23T11:01:14.285Z,23.38
2019-03-23T11:02:14.276Z,23.65
2019-03-23T11:03:14.274Z,23.73
2019-03-23T11:04:14.262Z,23.79
2019-03-23T11:05:14.258Z,23.85
2019-03-23T11:06:14.250Z,23.87
2019-03-23T11:07:15.416Z,23.91
2019-03-23T11:08:14.237Z,23.93
2019-03-23T11:09:14.236Z,24.06
2019-03-23T11:10:14.239Z,24.18
2019-03-23T11:11:14.222Z,24.22
2019-03-23T11:12:14.211Z,24.30
2019-03-23T11:13:14.205Z,24.34
2019-03-23T11:14:14.199Z,24.37
2019-03-23T11:15:14.194Z,24.55
2019-03-23T11:16:14.196Z,24.46
2019-03-23T11:17:14.184Z,24.60
2019-03-23T11:18:14.175Z,24.57
2019-03-23T11:19:14.168Z,24.76
2019-03-23T11:20:14.166Z,24.78
2019-03-23T11:21:14.155Z,24.91
2019-03-23T11:22:14.152Z,24.93
2019-03-23T11:23:14.146Z,24.99
2019-03-23T11:24:14.137Z,25.10
2019-03-23T11:25:14.135Z,25.23
2019-03-23T11:26:14.129Z,25.32
2019-03-23T11:27:14.128Z,25.43
2019-03-23T11:28:14.122Z,25.45
2019-03-23T11:29:14.115Z,25.52
2019-03-23T11:30:14.108Z,25.60
2019-03-23T11:31:14.106Z,25.65
2019-03-23T11:32:14.098Z,25.72
2019-03-23T11:33:14.094Z,25.76
2019-03-23T11:34:18.016Z,25.90
2019-03-23T11:35:14.161Z,26.02
2019-03-23T11:36:14.073Z,26.07
2019-03-23T11:37:14.108Z,26.15
2019-03-23T11:38:14.063Z,26.05
2019-03-23T11:39:14.064Z,25.95
2019-03-23T11:40:14.056Z,26.01
2019-03-23T11:41:14.050Z,26.07
2019-03-23T11:42:14.044Z,26.18
2019-03-23T11:43:14.047Z,26.28
2019-03-23T11:44:14.039Z,26.23
2019-03-23T11:45:14.030Z,26.23
2019-03-23T11:46:14.027Z,26.20
2019-03-23T11:47:14.024Z,26.18
2019-03-23T11:48:14.019Z,26.01
2019-03-23T11:49:14.012Z,26.05
2019-03-23T11:50:14.005Z,25.83
2019-03-23T11:51:14.003Z,25.80
2019-03-23T11:52:13.996Z,25.72
2019-03-23T11:53:14.001Z,25.61
2019-03-23T11:54:13.984Z,25.58
2019-03-23T11:55:13.982Z,25.58
2019-03-23T11:56:13.982Z,25.62
2019-03-23T11:57:13.976Z,25.45
2019-03-23T11:58:13.965Z,25.43
2019-03-23T11:59:13.965Z,25.57
2019-03-23T12:00:13.961Z,25.60
2019-03-23T12:01:13.953Z,25.62
2019-03-23T12:02:13.956Z,25.51
2019-03-23T12:03:13.946Z,25.30
2019-03-23T12:04:13.944Z,25.06
2019-03-23T12:05:13.945Z,24.76
2019-03-23T12:06:13.933Z,24.64
2019-03-23T12:07:13.928Z,24.58
2019-03-23T12:08:13.923Z,24.57
2019-03-23T12:09:13.918Z,24.55
2019-03-23T12:10:13.916Z,24.69
2019-03-23T12:11:13.906Z,24.58
2019-03-23T12:12:13.902Z,24.58
2019-03-23T12:13:13.896Z,24.53
2019-03-23T12:14:13.892Z,24.58
2019-03-23T12:15:13.891Z,24.58
2019-03-23T12:16:13.881Z,24.68
2019-03-23T12:17:13.879Z,24.67
2019-03-23T12:18:13.871Z,24.76
2019-03-23T12:19:13.867Z,24.71
2019-03-23T12:20:13.864Z,24.81
2019-03-23T12:21:13.859Z,24.84
2019-03-23T12:22:13.853Z,24.71
2019-03-23T12:23:13.852Z,24.55
2019-03-23T12:24:13.848Z,24.45
2019-03-23T12:25:13.844Z,24.35
2019-03-23T12:26:13.833Z,24.25
2019-03-23T12:27:13.830Z,24.15
2019-03-23T12:28:13.826Z,24.20
2019-03-23T12:29:13.829Z,24.22
2019-03-23T12:30:13.814Z,24.40
2019-03-23T12:31:13.811Z,24.62
2019-03-23T12:32:13.811Z,24.95
2019-03-23T12:33:13.799Z,25.06
2019-03-23T12:34:13.795Z,25.35
2019-03-23T12:35:13.789Z,25.57
2019-03-23T12:36:13.783Z,25.80
2019-03-23T12:37:13.782Z,25.92
2019-03-23T12:38:13.773Z,25.92
2019-03-23T12:39:13.772Z,25.87
2019-03-23T12:40:13.770Z,25.83
2019-03-23T12:41:22.716Z,25.47
2019-03-23T12:42:13.756Z,25.38
2019-03-23T12:43:13.747Z,25.20
2019-03-23T12:44:13.747Z,25.21
2019-03-23T12:45:13.740Z,25.28
2019-03-23T12:46:13.738Z,25.35
2019-03-23T12:47:13.731Z,25.40
2019-03-23T12:48:13.729Z,25.58
2019-03-23T12:49:13.721Z,25.75
2019-03-23T12:50:13.716Z,25.94
2019-03-23T12:51:13.713Z,26.01
2019-03-23T12:52:13.707Z,26.05
2019-03-23T12:53:13.706Z,26.10
2019-03-23T12:54:13.700Z,26.26
2019-03-23T12:55:13.696Z,26.30
2019-03-23T12:56:13.694Z,26.32
2019-03-23T12:57:13.688Z,26.39
2019-03-23T12:58:13.684Z,26.50
2019-03-23T12:59:13.676Z,26.35
2019-03-23T13:00:13.676Z,26.35
2019-03-23T13:01:13.668Z,26.50
2019-03-23T13:02:13.665Z,26.66
2019-03-23T13:03:13.665Z,26.80
2019-03-23T13:04:13.659Z,26.92
2019-03-23T13:05:13.655Z,26.95
2019-03-23T13:06:13.645Z,26.88
2019-03-23T13:07:13.648Z,26.87